Time;durP1;ratioP1;P1;durP2;ratioP2;P2;SDS_P1;SDS_P2;PMS_P1;PMS_P2;Temp;Humidity;BMP_temperature;BMP_pressure;BME280_temperature;BME280_humidity;BME280_pressure;Samples;Min_cycle;Max_cycle;Signal;HPM_P1;HPM_P2
2023/09/30 00:01:31;;;;;;;13.10;4.30;;;;;;;;;;5067101;28;20098;-72
2023/09/30 00:03:57;;;;;;;15.80;4.15;;;;;;;;;;5067850;28;20048;-73
2023/09/30 00:06:23;;;;;;;14.85;5.00;;;;;;;;;;5049563;28;20053;-73
2023/09/30 00:08:50;;;;;;;19.23;4.00;;;;;;;;;;5067722;28;20106;-72
2023/09/30 00:11:19;;;;;;;18.33;5.05;;;;;;;;;;5052202;28;20045;-72
2023/09/30 00:13:45;;;;;;;13.77;4.80;;;;;;;;;;5068461;28;20036;-73
2023/09/30 00:16:12;;;;;;;15.77;4.68;;;;;;;;;;5069914;28;20502;-73
2023/09/30 00:18:38;;;;;;;16.25;4.20;;;;;;;;;;5046557;28;20051;-73
2023/09/30 00:21:05;;;;;;;16.15;4.05;;;;;;;;;;5049923;28;20041;-73
2023/09/30 00:23:31;;;;;;;12.88;4.25;;;;;;;;;;5067410;28;20037;-73
2023/09/30 00:25:57;;;;;;;14.60;3.95;;;;;;;;;;5070501;28;20043;-73
2023/09/30 00:28:23;;;;;;;15.95;4.53;;;;;;;;;;5070713;28;20033;-73
2023/09/30 00:30:50;;;;;;;13.77;4.63;;;;;;;;;;5071464;28;20036;-73
2023/09/30 00:33:16;;;;;;;14.70;3.85;;;;;;;;;;5051442;28;20076;-73
2023/09/30 00:35:41;;;;;;;13.02;4.50;;;;;;;;;;5049415;28;20071;-73
2023/09/30 00:38:08;;;;;;;11.13;3.90;;;;;;;;;;5067614;28;20044;-73
2023/09/30 00:40:35;;;;;;;13.15;5.03;;;;;;;;;;5071380;28;20094;-73
2023/09/30 00:43:01;;;;;;;10.75;4.10;;;;;;;;;;5066386;28;20045;-73
2023/09/30 00:45:27;;;;;;;16.75;3.97;;;;;;;;;;5069518;28;20032;-73
2023/09/30 00:47:54;;;;;;;12.98;4.18;;;;;;;;;;5067555;28;20044;-73
2023/09/30 00:50:21;;;;;;;12.30;3.95;;;;;;;;;;5070484;28;20040;-73
2023/09/30 00:52:48;;;;;;;11.57;3.50;;;;;;;;;;5070846;28;20040;-73
2023/09/30 00:55:15;;;;;;;13.60;4.00;;;;;;;;;;5067656;28;20052;-73
2023/09/30 00:57:41;;;;;;;15.68;4.03;;;;;;;;;;5052339;28;20075;-73
2023/09/30 01:00:11;;;;;;;11.95;4.05;;;;;;;;;;5070930;28;20046;-73
2023/09/30 01:02:39;;;;;;;15.43;4.10;;;;;;;;;;5053764;28;20044;-73
2023/09/30 01:05:05;;;;;;;13.23;3.95;;;;;;;;;;5069049;28;20051;-73
2023/09/30 01:07:31;;;;;;;16.20;4.15;;;;;;;;;;5073145;28;20409;-73
2023/09/30 01:09:57;;;;;;;18.20;4.28;;;;;;;;;;5055627;28;20036;-73
2023/09/30 01:12:23;;;;;;;15.75;4.47;;;;;;;;;;5073989;28;20440;-73
2023/09/30 01:14:49;;;;;;;14.43;3.75;;;;;;;;;;5071300;28;20037;-73
2023/09/30 01:17:15;;;;;;;15.20;4.65;;;;;;;;;;5070394;28;20048;-73
2023/09/30 01:19:44;;;;;;;13.20;3.85;;;;;;;;;;5073874;28;20036;-73
2023/09/30 01:22:11;;;;;;;14.45;4.32;;;;;;;;;;5052786;28;20045;-73
2023/09/30 01:24:40;;;;;;;16.95;4.03;;;;;;;;;;5073144;28;20064;-72
2023/09/30 01:27:07;;;;;;;20.13;4.78;;;;;;;;;;5073098;28;20037;-72
2023/09/30 01:29:32;;;;;;;15.75;4.75;;;;;;;;;;5072036;28;20037;-72
2023/09/30 01:31:59;;;;;;;12.93;3.83;;;;;;;;;;5052117;28;20040;-72
2023/09/30 01:34:25;;;;;;;13.02;3.92;;;;;;;;;;5065452;28;20044;-73
2023/09/30 01:36:51;;;;;;;11.63;3.72;;;;;;;;;;5069704;28;20032;-73
2023/09/30 01:39:17;;;;;;;18.88;4.32;;;;;;;;;;5070689;28;20401;-72
2023/09/30 01:41:43;;;;;;;11.70;4.03;;;;;;;;;;5072708;28;20387;-72
2023/09/30 01:44:09;;;;;;;12.32;4.78;;;;;;;;;;5072433;28;20046;-72
2023/09/30 01:46:36;;;;;;;13.00;4.30;;;;;;;;;;5067432;28;20036;-72
2023/09/30 01:49:03;;;;;;;14.30;3.97;;;;;;;;;;5065093;28;20048;-72
2023/09/30 01:51:29;;;;;;;14.65;4.20;;;;;;;;;;5070106;28;20047;-72
2023/09/30 01:53:55;;;;;;;12.35;4.30;;;;;;;;;;5070988;28;20132;-72
2023/09/30 01:56:21;;;;;;;13.43;3.90;;;;;;;;;;5066536;28;20048;-72
2023/09/30 01:58:47;;;;;;;12.55;4.35;;;;;;;;;;5068546;28;20040;-72
2023/09/30 02:01:14;;;;;;;13.18;4.40;;;;;;;;;;5067800;28;20045;-72
2023/09/30 02:03:41;;;;;;;11.32;3.95;;;;;;;;;;5064551;28;20041;-72
2023/09/30 02:06:07;;;;;;;14.68;4.28;;;;;;;;;;5068460;28;20050;-72
2023/09/30 02:08:34;;;;;;;11.32;3.80;;;;;;;;;;5066754;28;20119;-72
2023/09/30 02:11:00;;;;;;;14.95;4.05;;;;;;;;;;5070196;28;20120;-72
2023/09/30 02:13:27;;;;;;;12.15;3.88;;;;;;;;;;5066537;28;20131;-72
2023/09/30 02:15:55;;;;;;;14.52;4.72;;;;;;;;;;5082646;22;20406;-63
2023/09/30 02:18:21;;;;;;;19.58;5.22;;;;;;;;;;5059038;22;20059;-65
2023/09/30 02:20:47;;;;;;;10.82;4.78;;;;;;;;;;5042087;28;20076;-63
2023/09/30 02:23:16;;;;;;;14.82;4.43;;;;;;;;;;5047399;28;20076;-63
2023/09/30 02:25:43;;;;;;;15.18;4.70;;;;;;;;;;5039093;28;20405;-62
2023/09/30 02:28:09;;;;;;;15.35;4.65;;;;;;;;;;5045845;28;20037;-62
2023/09/30 02:30:35;;;;;;;16.05;5.75;;;;;;;;;;5041507;28;20374;-62
2023/09/30 02:33:01;;;;;;;17.48;4.75;;;;;;;;;;5046169;28;20044;-62
2023/09/30 02:35:27;;;;;;;9.77;4.63;;;;;;;;;;5038344;28;20069;-62
2023/09/30 02:37:53;;;;;;;17.38;5.22;;;;;;;;;;5039491;28;20069;-63
2023/09/30 02:40:19;;;;;;;13.68;4.63;;;;;;;;;;5045706;28;20043;-62
2023/09/30 02:42:45;;;;;;;15.70;4.32;;;;;;;;;;5042232;28;20063;-62
2023/09/30 02:45:12;;;;;;;13.63;4.85;;;;;;;;;;5043212;28;20048;-62
2023/09/30 02:47:38;;;;;;;11.20;4.97;;;;;;;;;;5042640;28;20507;-62
2023/09/30 02:50:08;;;;;;;13.82;5.28;;;;;;;;;;5045869;28;20037;-63
2023/09/30 02:52:34;;;;;;;14.13;4.50;;;;;;;;;;5042375;28;20397;-62
2023/09/30 02:55:00;;;;;;;16.63;5.00;;;;;;;;;;5045415;28;20060;-63
2023/09/30 02:57:31;;;;;;;12.75;4.32;;;;;;;;;;5037384;28;20045;-63
2023/09/30 02:59:59;;;;;;;13.18;4.32;;;;;;;;;;5040174;28;20056;-62
2023/09/30 03:02:25;;;;;;;13.00;4.95;;;;;;;;;;5038082;28;20052;-63
2023/09/30 03:04:51;;;;;;;12.38;4.97;;;;;;;;;;5045752;28;20370;-62
2023/09/30 03:07:19;;;;;;;13.52;4.38;;;;;;;;;;5032083;28;20045;-63
2023/09/30 03:09:46;;;;;;;17.73;4.93;;;;;;;;;;5039676;28;20033;-62
2023/09/30 03:12:13;;;;;;;15.00;4.72;;;;;;;;;;5040713;28;20503;-62
2023/09/30 03:14:40;;;;;;;10.38;4.78;;;;;;;;;;5041052;28;20041;-62
2023/09/30 03:17:11;;;;;;;12.07;4.55;;;;;;;;;;5034018;28;20036;-62
2023/09/30 03:19:37;;;;;;;15.13;5.47;;;;;;;;;;5033526;28;20048;-63
2023/09/30 03:22:05;;;;;;;14.57;4.63;;;;;;;;;;5038277;28;20044;-62
2023/09/30 03:24:31;;;;;;;11.65;4.80;;;;;;;;;;5034272;28;20125;-62
2023/09/30 03:26:58;;;;;;;16.23;5.43;;;;;;;;;;5039370;28;20381;-62
2023/09/30 03:29:24;;;;;;;13.80;4.65;;;;;;;;;;5041212;28;20055;-63
2023/09/30 03:31:50;;;;;;;14.15;5.13;;;;;;;;;;5042718;28;20498;-63
2023/09/30 03:34:16;;;;;;;14.15;4.40;;;;;;;;;;5035801;28;20038;-63
2023/09/30 03:36:44;;;;;;;13.63;4.47;;;;;;;;;;5030497;28;20060;-62
2023/09/30 03:39:14;;;;;;;11.57;4.88;;;;;;;;;;5045891;28;20585;-62
2023/09/30 03:41:40;;;;;;;12.63;5.10;;;;;;;;;;5033041;28;20052;-63
2023/09/30 03:44:06;;;;;;;14.02;4.72;;;;;;;;;;5035442;28;20409;-63
2023/09/30 03:46:32;;;;;;;13.50;5.00;;;;;;;;;;5035168;28;20036;-63
2023/09/30 03:48:59;;;;;;;18.48;5.05;;;;;;;;;;5039757;28;20111;-62
2023/09/30 03:51:25;;;;;;;12.18;5.18;;;;;;;;;;5032997;28;20068;-62
2023/09/30 03:53:52;;;;;;;13.93;5.43;;;;;;;;;;5039950;28;20041;-63
2023/09/30 03:56:18;;;;;;;14.20;5.25;;;;;;;;;;5032181;28;20489;-63
2023/09/30 03:58:48;;;;;;;14.07;5.82;;;;;;;;;;5037744;28;20041;-62
2023/09/30 04:01:14;;;;;;;12.50;5.20;;;;;;;;;;5035025;28;20053;-62
2023/09/30 04:03:43;;;;;;;13.07;5.18;;;;;;;;;;5035225;28;20044;-62
2023/09/30 04:06:09;;;;;;;13.20;4.90;;;;;;;;;;5044155;28;20043;-62
2023/09/30 04:08:35;;;;;;;12.85;4.88;;;;;;;;;;5041915;28;20124;-62
2023/09/30 04:11:02;;;;;;;13.05;4.88;;;;;;;;;;5039270;28;20408;-62
2023/09/30 04:13:29;;;;;;;15.23;4.50;;;;;;;;;;5025615;28;20139;-62
2023/09/30 04:15:58;;;;;;;10.57;4.60;;;;;;;;;;5025105;28;20061;-62
2023/09/30 04:18:26;;;;;;;14.73;5.35;;;;;;;;;;5034986;28;20045;-63
2023/09/30 04:20:52;;;;;;;13.77;5.20;;;;;;;;;;5043219;28;20046;-63
2023/09/30 04:23:20;;;;;;;13.57;5.43;;;;;;;;;;5036187;28;20409;-63
2023/09/30 04:25:46;;;;;;;12.55;4.93;;;;;;;;;;5028936;28;20041;-63
2023/09/30 04:28:13;;;;;;;14.18;5.28;;;;;;;;;;5045505;28;20037;-63
2023/09/30 04:30:40;;;;;;;17.33;5.32;;;;;;;;;;5043209;28;20599;-63
2023/09/30 04:33:06;;;;;;;14.90;4.90;;;;;;;;;;5046421;28;20041;-62
2023/09/30 04:35:32;;;;;;;15.70;5.75;;;;;;;;;;5028953;28;20571;-63
2023/09/30 04:38:04;;;;;;;13.00;5.40;;;;;;;;;;5038909;28;20098;-63
2023/09/30 04:40:30;;;;;;;13.57;5.35;;;;;;;;;;5038180;28;20053;-62
2023/09/30 04:42:59;;;;;;;14.18;5.28;;;;;;;;;;5048259;28;20049;-63
2023/09/30 04:45:26;;;;;;;16.63;6.35;;;;;;;;;;5041494;28;20545;-62
2023/09/30 04:47:53;;;;;;;15.23;5.90;;;;;;;;;;5034409;28;20505;-63
2023/09/30 04:50:21;;;;;;;13.80;5.45;;;;;;;;;;5044618;28;20045;-63
2023/09/30 04:52:47;;;;;;;13.07;5.57;;;;;;;;;;5039113;28;20868;-63
2023/09/30 04:55:15;;;;;;;12.10;6.00;;;;;;;;;;5038907;28;20037;-63
2023/09/30 04:57:44;;;;;;;16.60;5.85;;;;;;;;;;5046801;28;20067;-63
2023/09/30 05:00:11;;;;;;;12.93;6.03;;;;;;;;;;5047447;28;20045;-62
2023/09/30 05:02:37;;;;;;;11.32;5.32;;;;;;;;;;5033007;28;20417;-63
2023/09/30 05:05:06;;;;;;;12.13;5.68;;;;;;;;;;5042979;28;20037;-63
2023/09/30 05:07:32;;;;;;;12.45;5.47;;;;;;;;;;5047882;28;20037;-63
2023/09/30 05:09:59;;;;;;;11.88;5.85;;;;;;;;;;5049830;28;20045;-63
2023/09/30 05:12:25;;;;;;;13.30;6.05;;;;;;;;;;5042521;28;20052;-63
2023/09/30 05:14:52;;;;;;;15.07;6.38;;;;;;;;;;5038629;28;20037;-63
2023/09/30 05:17:18;;;;;;;12.20;5.97;;;;;;;;;;5039284;28;20045;-63
2023/09/30 05:19:44;;;;;;;15.27;6.38;;;;;;;;;;5035252;28;20129;-63
2023/09/30 05:22:10;;;;;;;16.35;6.20;;;;;;;;;;5039001;28;20034;-64
2023/09/30 05:24:36;;;;;;;15.75;6.47;;;;;;;;;;5042040;28;20034;-64
2023/09/30 05:27:02;;;;;;;15.27;6.15;;;;;;;;;;5037323;28;20041;-64
2023/09/30 05:29:29;;;;;;;17.45;6.57;;;;;;;;;;5045902;28;20044;-63
2023/09/30 05:31:56;;;;;;;16.75;6.40;;;;;;;;;;5044997;28;20474;-63
2023/09/30 05:34:22;;;;;;;11.65;6.18;;;;;;;;;;5039049;28;20107;-64
2023/09/30 05:36:48;;;;;;;13.65;6.50;;;;;;;;;;5047276;28;20041;-63
2023/09/30 05:39:19;;;;;;;17.10;6.53;;;;;;;;;;5048923;28;20045;-64
2023/09/30 05:41:45;;;;;;;12.38;7.07;;;;;;;;;;5039418;28;20041;-63
2023/09/30 05:44:11;;;;;;;14.23;6.45;;;;;;;;;;5037513;28;20052;-64
2023/09/30 05:46:37;;;;;;;16.13;6.43;;;;;;;;;;5041015;28;20090;-64
2023/09/30 05:49:09;;;;;;;14.25;6.28;;;;;;;;;;5047180;28;20048;-64
2023/09/30 05:51:35;;;;;;;13.20;6.25;;;;;;;;;;5041935;28;20402;-63
2023/09/30 05:54:01;;;;;;;16.20;6.80;;;;;;;;;;5043113;28;20040;-63
2023/09/30 05:56:27;;;;;;;15.13;6.88;;;;;;;;;;5046500;28;20122;-64
2023/09/30 05:58:54;;;;;;;14.82;6.53;;;;;;;;;;5027489;28;20128;-63
2023/09/30 06:01:20;;;;;;;11.50;6.22;;;;;;;;;;5038796;28;20044;-63
2023/09/30 06:03:46;;;;;;;13.93;6.93;;;;;;;;;;5031305;28;20444;-64
2023/09/30 06:06:16;;;;;;;16.08;5.78;;;;;;;;;;5038446;28;20063;-64
2023/09/30 06:08:45;;;;;;;11.90;6.57;;;;;;;;;;5026054;28;20104;-64
2023/09/30 06:11:30;;;;;;;13.55;6.38;;;;;;;;;;5038460;28;20066;-64
2023/09/30 06:13:59;;;;;;;16.25;6.88;;;;;;;;;;5034953;28;20045;-64
2023/09/30 06:16:26;;;;;;;17.10;6.82;;;;;;;;;;5027619;28;20042;-64
2023/09/30 06:18:52;;;;;;;13.50;6.15;;;;;;;;;;5039185;28;20037;-64
2023/09/30 06:21:20;;;;;;;12.90;6.60;;;;;;;;;;5040535;28;20088;-64
2023/09/30 06:23:47;;;;;;;19.48;7.55;;;;;;;;;;5035642;28;20618;-64
2023/09/30 06:26:13;;;;;;;13.40;7.15;;;;;;;;;;5043001;28;20037;-64
2023/09/30 06:28:42;;;;;;;12.30;6.25;;;;;;;;;;5031541;28;20516;-64
2023/09/30 06:31:08;;;;;;;12.80;6.47;;;;;;;;;;5039665;28;20075;-64
2023/09/30 06:33:35;;;;;;;16.35;7.22;;;;;;;;;;5040307;28;20527;-64
2023/09/30 06:36:02;;;;;;;18.48;7.22;;;;;;;;;;5033189;28;20037;-64
2023/09/30 06:38:28;;;;;;;16.33;7.05;;;;;;;;;;5036680;28;20091;-64
2023/09/30 06:40:54;;;;;;;15.05;7.50;;;;;;;;;;5034390;28;20084;-64
2023/09/30 06:43:20;;;;;;;13.98;7.70;;;;;;;;;;5034995;28;20060;-64
2023/09/30 06:45:46;;;;;;;21.75;7.30;;;;;;;;;;5040698;28;20041;-64
2023/09/30 06:48:13;;;;;;;16.65;7.28;;;;;;;;;;5039485;28;20116;-64
2023/09/30 06:50:45;;;;;;;18.35;7.97;;;;;;;;;;5037514;28;20970;-64
2023/09/30 06:53:12;;;;;;;17.90;7.13;;;;;;;;;;5036148;28;20068;-64
2023/09/30 06:55:39;;;;;;;16.40;8.18;;;;;;;;;;5044478;28;20036;-64
2023/09/30 06:58:08;;;;;;;14.82;8.15;;;;;;;;;;5041498;28;20473;-64
2023/09/30 07:00:35;;;;;;;17.15;8.52;;;;;;;;;;5033521;28;20077;-64
2023/09/30 07:03:01;;;;;;;13.80;7.55;;;;;;;;;;5046894;28;20049;-64
2023/09/30 07:05:30;;;;;;;17.92;7.68;;;;;;;;;;5047146;28;20033;-64
2023/09/30 07:07:59;;;;;;;15.45;7.95;;;;;;;;;;5033521;28;20133;-64
2023/09/30 07:10:25;;;;;;;19.55;8.70;;;;;;;;;;5029082;28;20397;-64
2023/09/30 07:12:51;;;;;;;17.95;8.38;;;;;;;;;;5016303;28;20037;-64
2023/09/30 07:15:18;;;;;;;18.80;8.50;;;;;;;;;;5018233;28;20038;-64
2023/09/30 07:17:45;;;;;;;19.60;9.02;;;;;;;;;;5019399;28;20177;-64
2023/09/30 07:20:12;;;;;;;19.77;9.02;;;;;;;;;;5021257;28;20044;-64
2023/09/30 07:22:38;;;;;;;16.23;8.77;;;;;;;;;;5020445;28;20076;-64
2023/09/30 07:25:04;;;;;;;17.60;9.40;;;;;;;;;;5016830;28;20042;-64
2023/09/30 07:27:30;;;;;;;17.80;8.85;;;;;;;;;;5022728;28;20116;-64
2023/09/30 07:29:56;;;;;;;18.48;9.50;;;;;;;;;;5028292;28;20045;-63
2023/09/30 07:32:23;;;;;;;17.95;9.50;;;;;;;;;;5028032;28;20933;-64
2023/09/30 07:34:49;;;;;;;21.48;9.18;;;;;;;;;;5027173;28;20041;-64
2023/09/30 07:37:17;;;;;;;22.35;9.50;;;;;;;;;;5021841;28;20118;-64
2023/09/30 07:39:43;;;;;;;19.05;9.25;;;;;;;;;;5023214;28;20357;-64
2023/09/30 07:42:09;;;;;;;18.75;10.30;;;;;;;;;;5021213;28;20049;-64
2023/09/30 07:44:38;;;;;;;20.27;9.70;;;;;;;;;;5023870;28;20052;-64
2023/09/30 07:47:08;;;;;;;22.17;9.80;;;;;;;;;;5026025;28;20052;-64
2023/09/30 07:49:34;;;;;;;16.75;8.60;;;;;;;;;;5024606;28;20462;-64
2023/09/30 07:52:00;;;;;;;16.98;9.70;;;;;;;;;;5024560;28;20049;-64
2023/09/30 07:54:27;;;;;;;17.35;9.18;;;;;;;;;;5015306;28;20038;-64
2023/09/30 07:56:53;;;;;;;18.70;9.93;;;;;;;;;;5014562;28;20055;-64
2023/09/30 07:59:19;;;;;;;17.58;9.55;;;;;;;;;;5018860;28;20045;-64
2023/09/30 08:01:48;;;;;;;20.25;9.43;;;;;;;;;;5014819;28;20045;-64
2023/09/30 08:04:14;;;;;;;19.05;9.77;;;;;;;;;;5017687;28;20465;-64
2023/09/30 08:06:40;;;;;;;20.08;10.10;;;;;;;;;;5015079;28;20033;-64
2023/09/30 08:09:11;;;;;;;21.17;10.20;;;;;;;;;;5020840;28;20069;-64
2023/09/30 08:11:37;;;;;;;19.80;10.35;;;;;;;;;;5023375;28;20459;-64
2023/09/30 08:14:09;;;;;;;20.17;10.38;;;;;;;;;;5018811;28;20129;-64
2023/09/30 08:16:35;;;;;;;18.60;9.75;;;;;;;;;;5018203;28;20041;-64
2023/09/30 08:19:01;;;;;;;18.50;9.48;;;;;;;;;;5078220;22;20052;-67
2023/09/30 08:21:27;;;;;;;21.00;10.73;;;;;;;;;;5064281;28;20049;-67
2023/09/30 08:23:53;;;;;;;23.02;10.07;;;;;;;;;;5070079;28;20028;-67
2023/09/30 08:26:20;;;;;;;22.45;10.50;;;;;;;;;;5067057;28;20074;-67
2023/09/30 08:28:46;;;;;;;20.88;10.02;;;;;;;;;;5066370;28;20509;-66
2023/09/30 08:31:12;;;;;;;16.77;9.50;;;;;;;;;;5070176;28;20072;-66
2023/09/30 08:33:41;;;;;;;19.23;9.93;;;;;;;;;;5066829;28;20056;-66
2023/09/30 08:36:08;;;;;;;18.38;9.95;;;;;;;;;;5066803;28;20044;-66
2023/09/30 08:38:37;;;;;;;20.40;10.20;;;;;;;;;;5066041;28;20493;-66
2023/09/30 08:41:03;;;;;;;21.02;9.70;;;;;;;;;;5066204;28;20040;-66
2023/09/30 08:43:33;;;;;;;17.77;9.40;;;;;;;;;;5064615;28;20049;-66
2023/09/30 08:45:59;;;;;;;15.75;8.45;;;;;;;;;;5069189;28;20036;-66
2023/09/30 08:48:29;;;;;;;17.30;8.90;;;;;;;;;;5063288;28;20040;-66
2023/09/30 08:50:56;;;;;;;23.08;9.23;;;;;;;;;;5061514;28;20050;-66
2023/09/30 08:53:23;;;;;;;19.05;9.00;;;;;;;;;;5063970;28;20045;-66
2023/09/30 08:55:50;;;;;;;18.23;8.70;;;;;;;;;;5066453;28;20095;-67
2023/09/30 08:58:16;;;;;;;18.70;9.30;;;;;;;;;;5063585;28;20437;-67
2023/09/30 09:00:43;;;;;;;15.60;8.40;;;;;;;;;;5067691;28;20547;-67
2023/09/30 09:03:09;;;;;;;16.83;9.05;;;;;;;;;;5069038;28;20107;-67
2023/09/30 09:05:35;;;;;;;19.10;9.38;;;;;;;;;;5066244;28;20162;-67
2023/09/30 09:08:01;;;;;;;17.17;8.70;;;;;;;;;;5060725;28;20444;-67
2023/09/30 09:10:27;;;;;;;14.88;8.98;;;;;;;;;;5066554;28;20478;-67
2023/09/30 09:12:57;;;;;;;20.63;8.93;;;;;;;;;;5064689;28;20032;-68
2023/09/30 09:15:28;;;;;;;14.95;8.70;;;;;;;;;;5066649;28;20059;-67
2023/09/30 09:17:54;;;;;;;16.98;8.35;;;;;;;;;;5068244;28;20441;-67
2023/09/30 09:20:24;;;;;;;14.32;8.57;;;;;;;;;;5064597;28;20037;-67
2023/09/30 09:22:53;;;;;;;17.98;8.40;;;;;;;;;;5068932;28;20055;-67
2023/09/30 09:25:19;;;;;;;17.90;9.07;;;;;;;;;;5071929;28;20098;-67
2023/09/30 09:27:45;;;;;;;19.90;9.50;;;;;;;;;;5073231;28;20032;-67
2023/09/30 09:30:18;;;;;;;16.90;8.85;;;;;;;;;;5066128;28;20047;-67
2023/09/30 09:32:54;;;;;;;17.83;8.88;;;;;;;;;;5069509;28;20044;-67
2023/09/30 09:35:21;;;;;;;15.75;8.50;;;;;;;;;;5071654;28;20490;-67
2023/09/30 09:38:04;;;;;;;17.83;8.18;;;;;;;;;;5068711;28;20469;-67
2023/09/30 09:40:32;;;;;;;15.02;8.27;;;;;;;;;;5072698;28;20044;-67
2023/09/30 09:42:59;;;;;;;14.98;8.27;;;;;;;;;;5073748;28;20051;-67
2023/09/30 09:45:26;;;;;;;16.73;8.35;;;;;;;;;;5073220;28;20036;-67
2023/09/30 09:47:52;;;;;;;18.05;8.13;;;;;;;;;;5070359;28;20848;-66
2023/09/30 09:50:20;;;;;;;18.70;8.02;;;;;;;;;;5072006;28;20036;-66
2023/09/30 09:52:48;;;;;;;16.20;7.65;;;;;;;;;;5072107;28;20423;-67
2023/09/30 09:55:15;;;;;;;18.02;8.38;;;;;;;;;;5068420;28;20405;-67
2023/09/30 09:57:42;;;;;;;17.27;7.78;;;;;;;;;;5070416;28;20525;-67
2023/09/30 10:00:11;;;;;;;18.50;8.23;;;;;;;;;;5072305;28;20036;-67
2023/09/30 10:02:39;;;;;;;14.45;7.70;;;;;;;;;;5071442;28;20155;-67
2023/09/30 10:05:06;;;;;;;15.27;7.78;;;;;;;;;;5073033;28;20068;-67
2023/09/30 10:07:35;;;;;;;14.30;7.88;;;;;;;;;;5072826;28;20494;-67
2023/09/30 10:10:02;;;;;;;15.05;7.88;;;;;;;;;;5071843;28;20067;-67
2023/09/30 10:12:28;;;;;;;15.45;7.30;;;;;;;;;;5069106;28;20041;-67
2023/09/30 10:14:54;;;;;;;14.93;7.72;;;;;;;;;;5070564;28;20048;-67
2023/09/30 10:17:20;;;;;;;13.52;7.55;;;;;;;;;;5071025;28;20047;-67
2023/09/30 10:20:06;;;;;;;16.85;8.23;;;;;;;;;;5071318;28;20123;-67
2023/09/30 10:22:32;;;;;;;13.77;7.68;;;;;;;;;;5073067;28;20450;-67
2023/09/30 10:25:05;;;;;;;14.25;7.30;;;;;;;;;;5072543;28;20083;-67
2023/09/30 10:27:31;;;;;;;15.45;6.82;;;;;;;;;;5051291;28;20049;-67
2023/09/30 10:30:19;;;;;;;15.45;7.07;;;;;;;;;;5047964;28;20517;-67
2023/09/30 10:32:51;;;;;;;14.98;7.40;;;;;;;;;;5064711;28;20139;-67
2023/09/30 10:35:17;;;;;;;15.77;7.63;;;;;;;;;;5068121;28;20059;-67
2023/09/30 10:37:44;;;;;;;15.35;7.47;;;;;;;;;;5071226;28;20075;-67
2023/09/30 10:40:10;;;;;;;14.52;6.60;;;;;;;;;;5071104;28;20409;-67
2023/09/30 10:42:57;;;;;;;16.23;6.63;;;;;;;;;;5070456;28;20394;-67
2023/09/30 10:45:46;;;;;;;12.98;6.72;;;;;;;;;;5067233;28;20040;-67
2023/09/30 10:48:31;;;;;;;14.00;7.30;;;;;;;;;;5065540;28;20043;-67
2023/09/30 10:51:01;;;;;;;11.15;5.93;;;;;;;;;;5071368;28;20448;-67
2023/09/30 10:53:28;;;;;;;9.68;3.97;;;;;;;;;;5071035;28;20050;-67
2023/09/30 10:55:57;;;;;;;10.38;3.90;;;;;;;;;;5063887;28;20497;-67
2023/09/30 10:58:42;;;;;;;11.43;3.90;;;;;;;;;;5071185;28;20052;-67
2023/09/30 11:01:08;;;;;;;9.23;4.32;;;;;;;;;;5064758;28;20039;-67
2023/09/30 11:03:34;;;;;;;12.68;3.83;;;;;;;;;;5070439;28;20446;-67
2023/09/30 11:06:00;;;;;;;11.73;4.35;;;;;;;;;;5071548;28;20391;-67
2023/09/30 11:08:29;;;;;;;8.75;3.42;;;;;;;;;;5068047;28;20045;-67
2023/09/30 11:10:56;;;;;;;12.23;3.50;;;;;;;;;;5070797;28;20052;-67
2023/09/30 11:13:23;;;;;;;8.25;3.85;;;;;;;;;;5071300;28;20102;-67
2023/09/30 11:16:00;;;;;;;8.93;3.40;;;;;;;;;;5071084;28;20072;-67
2023/09/30 11:18:26;;;;;;;9.50;3.45;;;;;;;;;;5069977;28;20498;-67
2023/09/30 11:21:03;;;;;;;10.02;3.72;;;;;;;;;;5070094;28;20037;-67
2023/09/30 11:23:30;;;;;;;8.35;2.47;;;;;;;;;;5069044;28;20041;-67
2023/09/30 11:25:56;;;;;;;7.97;2.03;;;;;;;;;;5070706;28;20044;-67
2023/09/30 11:28:26;;;;;;;8.52;2.03;;;;;;;;;;5066981;28;20044;-67
2023/09/30 11:30:55;;;;;;;4.75;2.00;;;;;;;;;;5066522;28;22024;-67
2023/09/30 11:33:22;;;;;;;4.97;1.98;;;;;;;;;;5067956;28;20040;-67
2023/09/30 11:36:01;;;;;;;9.68;2.13;;;;;;;;;;5064243;28;20036;-67
2023/09/30 11:38:31;;;;;;;8.43;2.00;;;;;;;;;;5064231;28;20036;-67
2023/09/30 11:41:02;;;;;;;6.28;1.67;;;;;;;;;;5058411;28;20108;-67
2023/09/30 11:43:29;;;;;;;7.13;2.15;;;;;;;;;;5068905;28;20079;-67
2023/09/30 11:46:05;;;;;;;8.27;2.05;;;;;;;;;;5059954;28;20140;-67
2023/09/30 11:48:31;;;;;;;8.98;1.83;;;;;;;;;;5067311;28;20371;-67
2023/09/30 11:51:00;;;;;;;9.18;2.28;;;;;;;;;;5065598;28;21041;-67
2023/09/30 11:53:26;;;;;;;6.18;1.63;;;;;;;;;;5063441;28;20041;-67
2023/09/30 11:55:55;;;;;;;6.60;1.85;;;;;;;;;;5062956;28;20139;-67
2023/09/30 11:58:22;;;;;;;9.30;2.00;;;;;;;;;;5057991;28;20059;-67
2023/09/30 12:00:50;;;;;;;6.45;1.77;;;;;;;;;;5066676;28;20097;-67
2023/09/30 12:03:17;;;;;;;5.05;1.40;;;;;;;;;;5070152;28;20036;-67
2023/09/30 12:05:45;;;;;;;8.90;1.80;;;;;;;;;;5070655;28;20456;-67
2023/09/30 12:08:11;;;;;;;6.45;1.75;;;;;;;;;;5068703;28;20101;-67
2023/09/30 12:10:37;;;;;;;5.75;1.55;;;;;;;;;;5061435;28;20029;-67
2023/09/30 12:13:04;;;;;;;5.35;1.60;;;;;;;;;;5055823;28;20036;-67
2023/09/30 12:15:30;;;;;;;5.75;2.00;;;;;;;;;;5064902;28;20063;-67
2023/09/30 12:17:56;;;;;;;7.78;1.60;;;;;;;;;;5068106;28;20079;-67
2023/09/30 12:20:22;;;;;;;5.35;1.83;;;;;;;;;;5073823;28;20044;-67
2023/09/30 12:22:49;;;;;;;3.72;1.23;;;;;;;;;;5076447;28;20430;-67
2023/09/30 12:25:16;;;;;;;6.95;1.80;;;;;;;;;;5071113;28;20036;-67
2023/09/30 12:27:42;;;;;;;4.72;1.30;;;;;;;;;;5068827;28;20047;-67
2023/09/30 12:30:08;;;;;;;5.68;1.45;;;;;;;;;;5061606;28;20090;-67
2023/09/30 12:32:34;;;;;;;8.38;1.85;;;;;;;;;;5073454;28;20036;-67
2023/09/30 12:35:01;;;;;;;6.43;1.83;;;;;;;;;;5071473;28;20047;-67
2023/09/30 12:37:27;;;;;;;8.82;1.45;;;;;;;;;;5067558;28;20119;-67
2023/09/30 12:39:53;;;;;;;5.70;1.48;;;;;;;;;;5057255;28;20112;-67
2023/09/30 12:42:19;;;;;;;8.60;1.73;;;;;;;;;;5062956;28;20037;-67
2023/09/30 12:44:45;;;;;;;7.50;1.92;;;;;;;;;;5058739;28;20081;-67
2023/09/30 12:47:12;;;;;;;5.18;1.35;;;;;;;;;;5063606;28;20395;-67
2023/09/30 12:49:37;;;;;;;5.57;1.33;;;;;;;;;;5059449;28;20048;-67
2023/09/30 12:52:04;;;;;;;9.20;2.00;;;;;;;;;;5070734;28;20044;-67
2023/09/30 12:54:30;;;;;;;7.63;1.65;;;;;;;;;;5071560;28;20047;-67
2023/09/30 12:56:56;;;;;;;7.20;1.35;;;;;;;;;;5069094;28;20045;-67
2023/09/30 12:59:25;;;;;;;9.35;1.58;;;;;;;;;;5063101;28;20044;-67
2023/09/30 13:01:51;;;;;;;9.90;1.83;;;;;;;;;;5071749;28;20054;-67
2023/09/30 13:04:18;;;;;;;5.45;1.50;;;;;;;;;;5060670;28;20033;-67
2023/09/30 13:06:45;;;;;;;6.45;1.40;;;;;;;;;;5071529;28;20111;-67
2023/09/30 13:09:11;;;;;;;7.70;2.00;;;;;;;;;;5074980;28;20116;-67
2023/09/30 13:11:37;;;;;;;5.38;1.60;;;;;;;;;;5071184;28;20075;-67
2023/09/30 13:14:04;;;;;;;8.27;1.83;;;;;;;;;;5064189;28;20037;-67
2023/09/30 13:16:30;;;;;;;8.40;1.77;;;;;;;;;;5073417;28;20474;-67
2023/09/30 13:18:56;;;;;;;6.72;1.80;;;;;;;;;;5070646;28;20037;-67
2023/09/30 13:21:22;;;;;;;6.32;1.52;;;;;;;;;;5061161;28;20441;-67
2023/09/30 13:23:48;;;;;;;6.38;1.83;;;;;;;;;;5065959;28;20112;-67
2023/09/30 13:26:14;;;;;;;6.57;1.52;;;;;;;;;;5061890;28;20511;-67
2023/09/30 13:28:40;;;;;;;4.60;1.40;;;;;;;;;;5069564;28;20028;-67
2023/09/30 13:31:06;;;;;;;9.05;1.70;;;;;;;;;;5060298;28;20044;-67
2023/09/30 13:33:32;;;;;;;5.72;1.10;;;;;;;;;;5069955;28;20044;-67
2023/09/30 13:35:58;;;;;;;5.90;1.52;;;;;;;;;;5045794;28;20198;-67
2023/09/30 13:38:24;;;;;;;5.53;1.30;;;;;;;;;;5059399;28;20193;-67
2023/09/30 13:40:50;;;;;;;6.38;1.48;;;;;;;;;;5061494;28;20558;-67
2023/09/30 13:43:16;;;;;;;4.35;1.30;;;;;;;;;;5067428;28;20039;-67
2023/09/30 13:45:41;;;;;;;4.13;1.50;;;;;;;;;;5070445;28;20032;-67
2023/09/30 13:48:07;;;;;;;7.38;1.75;;;;;;;;;;5069999;28;20075;-67
2023/09/30 13:50:34;;;;;;;6.03;1.60;;;;;;;;;;5070387;28;20044;-67
2023/09/30 13:53:01;;;;;;;5.07;1.90;;;;;;;;;;5074840;28;20420;-67
2023/09/30 13:55:27;;;;;;;8.43;1.60;;;;;;;;;;5070768;28;20048;-67
2023/09/30 13:57:53;;;;;;;8.32;1.85;;;;;;;;;;5061671;28;20032;-67
2023/09/30 14:00:19;;;;;;;6.50;1.50;;;;;;;;;;5069309;28;20038;-67
2023/09/30 14:02:45;;;;;;;3.70;1.30;;;;;;;;;;5071753;28;20032;-67
2023/09/30 14:05:13;;;;;;;7.63;1.55;;;;;;;;;;5069105;28;20032;-67
2023/09/30 14:07:39;;;;;;;6.38;1.50;;;;;;;;;;5066060;28;20059;-67
2023/09/30 14:10:06;;;;;;;5.40;1.42;;;;;;;;;;5057776;28;20040;-67
2023/09/30 14:12:32;;;;;;;4.10;1.58;;;;;;;;;;5066679;28;20505;-67
2023/09/30 14:14:58;;;;;;;6.10;1.65;;;;;;;;;;5066388;28;20048;-67
2023/09/30 14:17:25;;;;;;;6.07;1.90;;;;;;;;;;5083191;22;20048;-72
2023/09/30 14:19:51;;;;;;;3.95;1.20;;;;;;;;;;5066503;28;20052;-71
2023/09/30 14:22:18;;;;;;;5.45;1.83;;;;;;;;;;5067789;28;20045;-72
2023/09/30 14:24:45;;;;;;;6.75;1.83;;;;;;;;;;5066367;28;20063;-72
2023/09/30 14:27:13;;;;;;;8.07;1.50;;;;;;;;;;5056391;28;20437;-72
2023/09/30 14:29:39;;;;;;;7.60;1.70;;;;;;;;;;5041454;28;20044;-72
2023/09/30 14:32:06;;;;;;;6.25;1.65;;;;;;;;;;5046846;28;20048;-71
2023/09/30 14:34:32;;;;;;;7.50;1.67;;;;;;;;;;5048011;28;20094;-71